createdAt,value
2017-02-14T00:00:07.076Z,2.3
2017-02-14T00:00:17.068Z,2.4
2017-02-14T00:00:27.060Z,2.4
2017-02-14T00:00:37.055Z,2.3
2017-02-14T00:00:47.048Z,2.3
2017-02-14T00:00:57.042Z,2.4
2017-02-14T00:01:07.034Z,2.3
2017-02-14T00:01:17.025Z,2.3
2017-02-14T00:01:27.019Z,2.3
2017-02-14T00:01:37.014Z,2.3
2017-02-14T00:01:47.008Z,2.3
2017-02-14T00:01:56.998Z,2.3
2017-02-14T00:02:06.994Z,2.3
2017-02-14T00:02:16.987Z,2.3
2017-02-14T00:02:26.977Z,2.4
2017-02-14T00:02:36.971Z,2.4
2017-02-14T00:02:46.967Z,2.4
2017-02-14T00:02:56.957Z,2.4
2017-02-14T00:03:06.952Z,2.4
2017-02-14T00:03:16.944Z,2.3
2017-02-14T00:03:26.938Z,2.3
2017-02-14T00:03:36.930Z,2.3
2017-02-14T00:03:46.924Z,2.3
2017-02-14T00:03:56.916Z,2.3
2017-02-14T00:04:06.912Z,2.3
2017-02-14T00:04:16.902Z,2.3
2017-02-14T00:04:26.897Z,2.4
2017-02-14T00:04:36.888Z,2.3
2017-02-14T00:04:46.883Z,2.4
2017-02-14T00:04:56.876Z,2.4
2017-02-14T00:05:06.870Z,2.4
2017-02-14T00:05:16.860Z,2.4
2017-02-14T00:05:26.857Z,2.4
2017-02-14T00:05:36.851Z,2.4
2017-02-14T00:05:46.843Z,2.4
2017-02-14T00:05:56.836Z,2.4
2017-02-14T00:06:06.829Z,2.4
2017-02-14T00:06:16.820Z,2.4
2017-02-14T00:06:26.813Z,2.5
2017-02-14T00:06:36.806Z,2.5
2017-02-14T00:06:46.802Z,2.4
2017-02-14T00:06:56.793Z,2.4
2017-02-14T00:07:06.789Z,2.4
2017-02-14T00:07:16.779Z,2.4
2017-02-14T00:07:26.772Z,2.4
2017-02-14T00:07:36.765Z,2.4
2017-02-14T00:07:46.758Z,2.4
2017-02-14T00:07:56.752Z,2.4
2017-02-14T00:08:06.745Z,2.4
2017-02-14T00:08:16.738Z,2.4
2017-02-14T00:08:26.731Z,2.3
2017-02-14T00:08:36.726Z,2.3
2017-02-14T00:08:46.718Z,2.2
2017-02-14T00:08:56.713Z,2.4
2017-02-14T00:09:06.705Z,2.3
2017-02-14T00:09:16.696Z,2.3
2017-02-14T00:09:26.692Z,2.3
2017-02-14T00:09:36.682Z,2.4
2017-02-14T00:09:46.677Z,2.4
2017-02-14T00:09:56.671Z,2.3
2017-02-14T00:10:06.690Z,2.3
2017-02-14T00:10:16.656Z,2.4
2017-02-14T00:10:26.649Z,2.4
2017-02-14T00:10:36.641Z,2.4
2017-02-14T00:10:46.637Z,2.4
2017-02-14T00:10:56.628Z,2.4
2017-02-14T00:11:06.622Z,2.3
2017-02-14T00:11:16.614Z,2.3
2017-02-14T00:11:26.610Z,2.3
2017-02-14T00:11:36.604Z,2.3
2017-02-14T00:11:46.597Z,2.3
2017-02-14T00:11:56.591Z,2.3
2017-02-14T00:12:06.581Z,2.3
2017-02-14T00:12:16.574Z,2.4
2017-02-14T00:12:26.567Z,2.3
2017-02-14T00:12:36.559Z,2.2
2017-02-14T00:12:46.555Z,2.4
2017-02-14T00:12:56.548Z,2.3
2017-02-14T00:13:06.539Z,2.3
2017-02-14T00:13:16.532Z,2.2
2017-02-14T00:13:26.529Z,2.2
2017-02-14T00:13:36.519Z,2.3
2017-02-14T00:13:46.515Z,2.3
2017-02-14T00:13:56.507Z,2.3
2017-02-14T00:14:06.501Z,2.3
2017-02-14T00:14:16.494Z,2.2
2017-02-14T00:14:26.485Z,2.3
2017-02-14T00:14:36.481Z,2.3
2017-02-14T00:14:46.472Z,2.4
2017-02-14T00:14:56.464Z,2.3
2017-02-14T00:15:06.457Z,2.4
2017-02-14T00:15:16.452Z,2.3
2017-02-14T00:15:26.443Z,2.3
2017-02-14T00:15:36.439Z,2.3
2017-02-14T00:15:46.431Z,2.3
2017-02-14T00:15:56.425Z,2.2
2017-02-14T00:16:06.418Z,2.3
2017-02-14T00:16:16.412Z,2.3
2017-02-14T00:16:26.405Z,2.4
2017-02-14T00:16:36.395Z,2.3
2017-02-14T00:16:46.389Z,2.4
2017-02-14T00:16:56.381Z,2.3
2017-02-14T00:17:06.374Z,2.3
2017-02-14T00:17:16.368Z,2.2
2017-02-14T00:17:26.365Z,2.4
2017-02-14T00:17:36.354Z,2.3
2017-02-14T00:17:46.349Z,2.3
2017-02-14T00:17:56.342Z,2.3
2017-02-14T00:18:06.337Z,2.2
2017-02-14T00:18:16.328Z,2.3
2017-02-14T00:18:26.320Z,2.3
2017-02-14T00:18:36.313Z,2.3
2017-02-14T00:18:46.307Z,2.2
2017-02-14T00:18:56.298Z,2.2
2017-02-14T00:19:06.294Z,2.3
2017-02-14T00:19:16.287Z,2.3
2017-02-14T00:19:26.278Z,2.2
2017-02-14T00:19:36.272Z,2.2
2017-02-14T00:19:46.266Z,2.3
2017-02-14T00:19:56.258Z,2.3
2017-02-14T00:20:06.252Z,2.3
2017-02-14T00:20:16.246Z,2.3
2017-02-14T00:20:26.241Z,2.3
2017-02-14T00:20:36.233Z,2.3
2017-02-14T00:20:46.225Z,2.2
2017-02-14T00:20:56.218Z,2.3
2017-02-14T00:21:06.210Z,2.3
2017-02-14T00:21:16.205Z,2.2
2017-02-14T00:21:26.200Z,2.2
2017-02-14T00:21:36.188Z,2.3
2017-02-14T00:21:46.185Z,2.3
2017-02-14T00:21:56.175Z,2.2
2017-02-14T00:22:06.172Z,2.2
2017-02-14T00:22:16.165Z,2.3
2017-02-14T00:22:26.155Z,2.3
2017-02-14T00:22:36.149Z,2.3
2017-02-14T00:22:46.142Z,2.4
2017-02-14T00:22:56.134Z,2.3
2017-02-14T00:23:06.128Z,2.2
2017-02-14T00:23:16.124Z,2.2
2017-02-14T00:23:26.114Z,2.3
2017-02-14T00:23:36.110Z,2.2
2017-02-14T00:23:46.100Z,2.3
2017-02-14T00:23:56.095Z,2.2
2017-02-14T00:24:06.089Z,2.2
2017-02-14T00:24:16.081Z,2.2
2017-02-14T00:24:26.074Z,2.3
2017-02-14T00:24:36.065Z,2.3
2017-02-14T00:24:46.058Z,2.3
2017-02-14T00:24:56.052Z,2.2
2017-02-14T00:25:06.047Z,2.2
2017-02-14T00:25:16.039Z,2.2
2017-02-14T00:25:26.035Z,2.2
2017-02-14T00:25:36.024Z,2.3
2017-02-14T00:25:46.019Z,2.3
2017-02-14T00:25:56.010Z,2.2
2017-02-14T00:26:06.005Z,2.2
2017-02-14T00:26:15.998Z,2.3
2017-02-14T00:26:25.997Z,2.2
2017-02-14T00:26:35.985Z,2.2
2017-02-14T00:26:45.978Z,2.3
2017-02-14T00:26:55.970Z,2.3
2017-02-14T00:27:05.963Z,2.3
2017-02-14T00:27:15.959Z,2.2
2017-02-14T00:27:25.951Z,2.3
2017-02-14T00:27:35.946Z,2.2
2017-02-14T00:27:45.938Z,2.2
2017-02-14T00:27:55.930Z,2.2
2017-02-14T00:28:05.922Z,2.1
2017-02-14T00:28:15.915Z,2.2
2017-02-14T00:28:25.911Z,2.3
2017-02-14T00:28:35.901Z,2.2
2017-02-14T00:28:45.895Z,2.2
2017-02-14T00:28:55.889Z,2.2
2017-02-14T00:29:05.898Z,2.2
2017-02-14T00:29:15.878Z,2.1
2017-02-14T00:29:25.870Z,2.2
2017-02-14T00:29:35.861Z,2.2
2017-02-14T00:29:45.854Z,2.2
2017-02-14T00:29:55.849Z,2.2
2017-02-14T00:30:05.840Z,2.3
2017-02-14T00:30:15.836Z,2.2
2017-02-14T00:30:25.827Z,2.3
2017-02-14T00:30:35.822Z,2.3
2017-02-14T00:30:45.816Z,2.2
2017-02-14T00:30:55.805Z,2.1
2017-02-14T00:31:05.801Z,2.2
2017-02-14T00:31:15.794Z,2.2
2017-02-14T00:31:25.785Z,2.2
2017-02-14T00:31:35.779Z,2.2
2017-02-14T00:31:45.771Z,2.2
2017-02-14T00:31:55.767Z,2.2
2017-02-14T00:32:05.757Z,2.2
2017-02-14T00:32:15.753Z,2.2
2017-02-14T00:32:25.747Z,2.2
2017-02-14T00:32:35.739Z,2.2
2017-02-14T00:32:45.730Z,2.3
2017-02-14T00:32:55.728Z,2.2
2017-02-14T00:33:05.716Z,2.2
2017-02-14T00:33:15.712Z,2.2
2017-02-14T00:33:25.705Z,2.2
2017-02-14T00:33:35.695Z,2.2
2017-02-14T00:33:45.689Z,2.2
2017-02-14T00:33:55.681Z,2.2
2017-02-14T00:34:05.676Z,2.2
2017-02-14T00:34:15.670Z,2.3
2017-02-14T00:34:25.664Z,2.2
2017-02-14T00:34:35.655Z,2.2
2017-02-14T00:34:45.651Z,2.2
2017-02-14T00:34:55.643Z,2.1
2017-02-14T00:35:05.642Z,2.2
2017-02-14T00:35:15.627Z,2.2
2017-02-14T00:35:25.620Z,2.2
2017-02-14T00:35:35.614Z,2.1
2017-02-14T00:35:45.607Z,2.1
2017-02-14T00:35:55.602Z,2.2
2017-02-14T00:36:05.596Z,2.1
2017-02-14T00:36:15.586Z,2.1
2017-02-14T00:36:25.580Z,2.2
2017-02-14T00:36:35.576Z,2.1
2017-02-14T00:36:45.567Z,2.2
2017-02-14T00:36:55.560Z,2.2
2017-02-14T00:37:05.554Z,2.1
2017-02-14T00:37:15.547Z,2.1
2017-02-14T00:37:25.539Z,2.2
2017-02-14T00:37:35.533Z,2.1
2017-02-14T00:37:45.525Z,2.2
2017-02-14T00:37:55.518Z,2.2
2017-02-14T00:38:05.511Z,2.2
2017-02-14T00:38:15.504Z,2.2
2017-02-14T00:38:25.496Z,2.1
2017-02-14T00:38:35.493Z,2.2
2017-02-14T00:38:45.484Z,2.2
2017-02-14T00:38:55.476Z,2.2
2017-02-14T00:39:05.472Z,2.2
2017-02-14T00:39:15.462Z,2.1
2017-02-14T00:39:25.459Z,2.2
2017-02-14T00:39:35.449Z,2.2
2017-02-14T00:39:45.444Z,2.1
2017-02-14T00:39:55.438Z,2.1
2017-02-14T00:40:05.429Z,2.2
2017-02-14T00:40:15.425Z,2.2
2017-02-14T00:40:25.416Z,2.1
2017-02-14T00:40:35.408Z,2.2
2017-02-14T00:40:45.400Z,2.2
2017-02-14T00:40:55.398Z,2.2
2017-02-14T00:41:05.390Z,2.2
2017-02-14T00:41:15.379Z,2.1
2017-02-14T00:41:25.374Z,2.2
2017-02-14T00:41:35.368Z,2.2
2017-02-14T00:41:45.361Z,2.2
2017-02-14T00:41:55.355Z,2.2
2017-02-14T00:42:05.348Z,2.1
2017-02-14T00:42:15.342Z,2.2
2017-02-14T00:42:25.332Z,2.1
2017-02-14T00:42:35.325Z,2.1
2017-02-14T00:42:45.322Z,2.1
2017-02-14T00:42:55.316Z,2.1
2017-02-14T00:43:05.305Z,2.1
2017-02-14T00:43:15.297Z,2.1
2017-02-14T00:43:25.292Z,2.1
2017-02-14T00:43:35.285Z,2.1
2017-02-14T00:43:45.308Z,2.1
2017-02-14T00:43:55.275Z,2.2
2017-02-14T00:44:05.267Z,2.1
2017-02-14T00:44:15.257Z,2.1
2017-02-14T00:44:25.251Z,2.1
2017-02-14T00:44:35.245Z,2.2
2017-02-14T00:44:45.239Z,2.1
2017-02-14T00:44:55.230Z,2.2
2017-02-14T00:45:05.225Z,2.1
2017-02-14T00:45:15.216Z,2.1
2017-02-14T00:45:25.209Z,2.1
2017-02-14T00:45:35.204Z,2.1
2017-02-14T00:45:45.199Z,2
2017-02-14T00:45:55.187Z,2.2
2017-02-14T00:46:05.185Z,2.2
2017-02-14T00:46:15.178Z,2.1
2017-02-14T00:46:25.170Z,2.1
2017-02-14T00:46:35.163Z,2.2
2017-02-14T00:46:53.458Z,2.1
2017-02-14T00:47:03.423Z,2.2
2017-02-14T00:47:13.417Z,2.1
2017-02-14T00:47:23.411Z,2.2
2017-02-14T00:47:33.403Z,2.1
2017-02-14T00:47:43.398Z,2.1
2017-02-14T00:47:53.389Z,2.2
2017-02-14T00:48:03.382Z,2.2
2017-02-14T00:48:13.378Z,2.2
2017-02-14T00:48:23.368Z,2.1
2017-02-14T00:48:33.362Z,2.2
2017-02-14T00:48:43.357Z,2.2
2017-02-14T00:48:53.348Z,2.1
2017-02-14T00:49:03.342Z,2.1
2017-02-14T00:49:13.334Z,2
2017-02-14T00:49:23.327Z,2.2
2017-02-14T00:49:33.319Z,2.2
2017-02-14T00:49:43.316Z,2.2
2017-02-14T00:49:53.309Z,2.1
2017-02-14T00:50:03.301Z,2.2
2017-02-14T00:50:13.295Z,2.2
2017-02-14T00:50:23.289Z,2
2017-02-14T00:50:33.279Z,2.1
2017-02-14T00:50:43.274Z,2.1
2017-02-14T00:50:53.270Z,2.1
2017-02-14T00:51:03.259Z,2.1
2017-02-14T00:51:13.251Z,2.1
2017-02-14T00:51:23.246Z,2.2
2017-02-14T00:51:33.238Z,2.2
2017-02-14T00:51:43.234Z,2.1
2017-02-14T00:51:53.224Z,2.1
2017-02-14T00:52:03.221Z,2.1
2017-02-14T00:52:13.211Z,2.2
2017-02-14T00:52:23.205Z,2.2
2017-02-14T00:52:33.197Z,2.1
2017-02-14T00:52:43.192Z,2.1
2017-02-14T00:52:53.186Z,2.1
2017-02-14T00:53:03.177Z,2.1
2017-02-14T00:53:13.169Z,2.1
2017-02-14T00:53:23.162Z,2
2017-02-14T00:53:33.158Z,2
2017-02-14T00:53:43.151Z,2
2017-02-14T00:53:53.143Z,2
2017-02-14T00:54:03.138Z,2.1
2017-02-14T00:54:13.130Z,2
2017-02-14T00:54:23.122Z,2
2017-02-14T00:54:33.114Z,2
2017-02-14T00:54:43.109Z,2
2017-02-14T00:54:53.103Z,2
2017-02-14T00:55:03.093Z,2
2017-02-14T00:55:13.088Z,2
2017-02-14T00:55:23.082Z,2
2017-02-14T00:55:33.073Z,2
2017-02-14T00:55:43.070Z,2
2017-02-14T00:55:53.063Z,2
2017-02-14T00:56:03.056Z,2
2017-02-14T00:56:13.047Z,2
2017-02-14T00:56:23.041Z,2
2017-02-14T00:56:33.034Z,2
2017-02-14T00:56:43.028Z,2
2017-02-14T00:56:53.022Z,2
2017-02-14T00:57:03.012Z,2
2017-02-14T00:57:13.007Z,2
2017-02-14T00:57:22.999Z,2
2017-02-14T00:57:32.992Z,2
2017-02-14T00:57:42.986Z,2
2017-02-14T00:57:52.981Z,2
2017-02-14T00:58:02.971Z,2
2017-02-14T00:58:12.963Z,2
2017-02-14T00:58:22.958Z,2
2017-02-14T00:58:32.949Z,2
2017-02-14T00:58:42.943Z,2
2017-02-14T00:58:52.936Z,2
2017-02-14T00:59:02.930Z,2
2017-02-14T00:59:12.922Z,2
2017-02-14T00:59:22.917Z,2
2017-02-14T00:59:32.910Z,2
2017-02-14T00:59:42.902Z,2
2017-02-14T00:59:52.897Z,2
2017-02-14T01:00:02.888Z,2
2017-02-14T01:00:12.879Z,2
2017-02-14T01:00:22.876Z,2
2017-02-14T01:00:32.870Z,2
2017-02-14T01:00:42.862Z,2
2017-02-14T01:00:52.853Z,2
2017-02-14T01:01:02.847Z,2
2017-02-14T01:01:12.841Z,2
2017-02-14T01:01:22.833Z,2
2017-02-14T01:01:32.828Z,2
2017-02-14T01:01:42.820Z,2
2017-02-14T01:01:52.813Z,2
2017-02-14T01:02:02.806Z,2.1
2017-02-14T01:02:12.798Z,2
2017-02-14T01:02:22.790Z,2
2017-02-14T01:02:32.784Z,2
2017-02-14T01:02:42.778Z,2
2017-02-14T01:02:52.771Z,1.9
2017-02-14T01:03:02.767Z,1.9
2017-02-14T01:03:12.759Z,2
2017-02-14T01:03:22.753Z,2
2017-02-14T01:03:32.746Z,2
2017-02-14T01:03:42.737Z,2
2017-02-14T01:03:52.732Z,2
2017-02-14T01:04:02.723Z,2
2017-02-14T01:04:12.715Z,2
2017-02-14T01:04:22.713Z,2
2017-02-14T01:04:32.704Z,2
2017-02-14T01:04:42.697Z,2
2017-02-14T01:04:52.689Z,1.9
2017-02-14T01:05:02.682Z,2
2017-02-14T01:05:12.677Z,1.9
2017-02-14T01:05:22.669Z,1.9
2017-02-14T01:05:32.665Z,1.8
2017-02-14T01:05:42.657Z,1.9
2017-02-14T01:05:52.649Z,1.8
2017-02-14T01:06:02.643Z,1.9
2017-02-14T01:06:12.635Z,1.9
2017-02-14T01:06:22.628Z,1.9
2017-02-14T01:06:32.622Z,1.8
2017-02-14T01:06:42.616Z,1.9
2017-02-14T01:06:52.605Z,1.9
2017-02-14T01:07:02.601Z,1.8
2017-02-14T01:07:12.625Z,1.8
2017-02-14T01:07:22.590Z,1.8
2017-02-14T01:07:32.579Z,1.8
2017-02-14T01:07:42.572Z,1.9
2017-02-14T01:07:52.566Z,1.9
2017-02-14T01:08:02.559Z,1.9
2017-02-14T01:08:12.553Z,1.9
2017-02-14T01:08:22.548Z,1.8
2017-02-14T01:08:32.538Z,1.9
2017-02-14T01:08:42.531Z,1.9
2017-02-14T01:08:52.524Z,2
2017-02-14T01:09:02.520Z,1.9
2017-02-14T01:09:12.508Z,2
2017-02-14T01:09:22.505Z,1.9
2017-02-14T01:09:32.498Z,1.9
2017-02-14T01:09:42.490Z,1.9
2017-02-14T01:09:52.484Z,1.9
2017-02-14T01:10:02.480Z,1.9
2017-02-14T01:10:12.470Z,2
2017-02-14T01:10:22.466Z,2
2017-02-14T01:10:32.457Z,2
2017-02-14T01:10:42.449Z,1.9
2017-02-14T01:10:52.444Z,1.9
2017-02-14T01:11:02.439Z,2
2017-02-14T01:11:12.429Z,1.9
2017-02-14T01:11:22.424Z,1.9
2017-02-14T01:11:32.416Z,1.9
2017-02-14T01:11:42.407Z,1.8
2017-02-14T01:11:52.401Z,1.9
2017-02-14T01:12:02.395Z,1.9
2017-02-14T01:12:12.386Z,1.9
2017-02-14T01:12:22.382Z,1.9
2017-02-14T01:12:32.374Z,1.9
2017-02-14T01:12:42.368Z,1.9
2017-02-14T01:12:52.361Z,1.9
2017-02-14T01:13:02.353Z,1.9
2017-02-14T01:13:12.347Z,1.9
2017-02-14T01:13:22.340Z,1.9
2017-02-14T01:13:32.333Z,1.9
2017-02-14T01:13:42.325Z,1.9
2017-02-14T01:13:52.320Z,1.9
2017-02-14T01:14:02.310Z,1.9
2017-02-14T01:14:12.305Z,2
2017-02-14T01:14:22.299Z,1.9
2017-02-14T01:14:32.293Z,1.9
2017-02-14T01:14:42.283Z,1.8
2017-02-14T01:14:52.278Z,1.9
2017-02-14T01:15:02.272Z,1.9
2017-02-14T01:15:12.263Z,1.8
2017-02-14T01:15:22.256Z,1.8
2017-02-14T01:15:32.250Z,1.8
2017-02-14T01:15:42.278Z,1.8
2017-02-14T01:15:52.238Z,1.8
2017-02-14T01:16:02.232Z,1.8
2017-02-14T01:16:12.223Z,1.8
2017-02-14T01:16:22.215Z,1.7
2017-02-14T01:16:32.211Z,1.8
2017-02-14T01:16:42.201Z,1.8
2017-02-14T01:16:52.194Z,1.9
2017-02-14T01:17:02.188Z,1.8
2017-02-14T01:17:12.182Z,1.8
2017-02-14T01:17:22.174Z,1.8
2017-02-14T01:17:32.169Z,1.8
2017-02-14T01:17:42.162Z,1.8
2017-02-14T01:17:52.152Z,1.8
2017-02-14T01:18:02.147Z,1.8
2017-02-14T01:18:12.145Z,1.8
2017-02-14T01:18:22.134Z,1.8
2017-02-14T01:18:32.128Z,1.8
2017-02-14T01:18:42.119Z,1.8
2017-02-14T01:18:52.111Z,1.9
2017-02-14T01:19:02.111Z,1.8
2017-02-14T01:19:12.098Z,1.9
2017-02-14T01:19:22.090Z,1.8
2017-02-14T01:19:32.086Z,1.9
2017-02-14T01:19:42.076Z,1.9
2017-02-14T01:19:52.072Z,1.9
2017-02-14T01:20:02.066Z,1.9
2017-02-14T01:20:12.063Z,1.9
2017-02-14T01:20:22.052Z,1.9
2017-02-14T01:20:32.045Z,1.9
2017-02-14T01:20:42.038Z,1.8
2017-02-14T01:20:52.031Z,1.8
2017-02-14T01:21:02.025Z,1.8
2017-02-14T01:21:12.020Z,1.9
2017-02-14T01:21:22.009Z,1.9
2017-02-14T01:21:32.001Z,1.8
2017-02-14T01:21:41.995Z,2
2017-02-14T01:21:51.989Z,1.9
2017-02-14T01:22:01.980Z,1.9
2017-02-14T01:22:11.976Z,1.9
2017-02-14T01:22:21.967Z,1.8
2017-02-14T01:22:31.958Z,1.8
2017-02-14T01:22:41.956Z,1.7
2017-02-14T01:22:51.949Z,1.8
2017-02-14T01:23:01.944Z,1.8
2017-02-14T01:23:11.933Z,1.7
2017-02-14T01:23:21.925Z,1.8
2017-02-14T01:23:31.919Z,1.8
2017-02-14T01:23:41.913Z,1.6
2017-02-14T01:23:51.904Z,1.8
2017-02-14T01:24:01.901Z,1.7
2017-02-14T01:24:11.891Z,1.7
2017-02-14T01:24:21.887Z,1.7
2017-02-14T01:24:31.882Z,1.8
2017-02-14T01:24:41.871Z,1.9
2017-02-14T01:24:51.865Z,1.8
2017-02-14T01:25:01.859Z,1.9
2017-02-14T01:25:11.852Z,1.9
2017-02-14T01:25:21.846Z,1.8
2017-02-14T01:25:31.835Z,1.7
2017-02-14T01:25:41.830Z,1.8
2017-02-14T01:25:51.825Z,1.8
2017-02-14T01:26:01.821Z,1.8
2017-02-14T01:26:11.808Z,1.9
2017-02-14T01:26:21.804Z,1.9
2017-02-14T01:26:31.796Z,1.8
2017-02-14T01:26:41.788Z,1.8
2017-02-14T01:26:51.784Z,1.8
2017-02-14T01:27:01.773Z,1.8
2017-02-14T01:27:11.771Z,1.9
2017-02-14T01:27:21.760Z,1.9
2017-02-14T01:27:31.757Z,1.9
2017-02-14T01:27:41.748Z,1.8
2017-02-14T01:27:51.743Z,1.9
2017-02-14T01:28:01.736Z,1.9
2017-02-14T01:28:11.728Z,1.9
2017-02-14T01:28:21.720Z,1.9
2017-02-14T01:28:31.713Z,1.9
2017-02-14T01:28:41.709Z,1.8
2017-02-14T01:28:51.698Z,1.9
2017-02-14T01:29:01.695Z,1.8
2017-02-14T01:29:11.686Z,1.7
2017-02-14T01:29:21.678Z,1.7
2017-02-14T01:29:31.672Z,1.7
2017-02-14T01:29:41.667Z,1.6
2017-02-14T01:29:51.660Z,1.7
2017-02-14T01:30:01.651Z,1.7
2017-02-14T01:30:11.647Z,1.7
2017-02-14T01:30:21.636Z,1.7
2017-02-14T01:30:31.632Z,1.8
2017-02-14T01:30:41.623Z,1.7
2017-02-14T01:30:51.616Z,1.8
2017-02-14T01:31:01.612Z,1.9
2017-02-14T01:31:11.602Z,1.8
2017-02-14T01:31:21.595Z,1.8
2017-02-14T01:31:31.590Z,1.7
2017-02-14T01:31:41.584Z,1.8
2017-02-14T01:31:51.574Z,1.8
2017-02-14T01:32:01.569Z,1.7
2017-02-14T01:32:11.561Z,1.8
2017-02-14T01:32:21.559Z,1.8
2017-02-14T01:32:31.550Z,1.8
2017-02-14T01:32:41.542Z,1.8
2017-02-14T01:32:51.533Z,1.8
2017-02-14T01:33:01.530Z,1.8
2017-02-14T01:33:11.522Z,1.8
2017-02-14T01:33:21.512Z,1.8
2017-02-14T01:33:31.507Z,1.8
2017-02-14T01:33:41.502Z,1.7
2017-02-14T01:33:51.495Z,1.7
2017-02-14T01:34:01.486Z,1.7
2017-02-14T01:34:11.482Z,1.7
2017-02-14T01:34:21.472Z,1.7
2017-02-14T01:34:31.467Z,1.7
2017-02-14T01:34:41.460Z,1.6
2017-02-14T01:34:51.450Z,1.6
2017-02-14T01:35:01.444Z,1.8
2017-02-14T01:35:11.438Z,1.7
2017-02-14T01:35:21.433Z,1.7
2017-02-14T01:35:31.422Z,1.7
2017-02-14T01:35:41.417Z,1.8
2017-02-14T01:35:51.407Z,1.7
2017-02-14T01:36:01.404Z,1.8
2017-02-14T01:36:11.395Z,1.8
2017-02-14T01:36:21.388Z,1.7
2017-02-14T01:36:31.383Z,1.6
2017-02-14T01:36:41.376Z,1.7
2017-02-14T01:36:51.369Z,1.7
2017-02-14T01:37:01.364Z,1.7
2017-02-14T01:37:11.356Z,1.7
2017-02-14T01:37:21.350Z,1.6
2017-02-14T01:37:31.346Z,1.7
2017-02-14T01:37:41.336Z,1.7
2017-02-14T01:37:51.329Z,1.7
2017-02-14T01:38:01.321Z,1.7
2017-02-14T01:38:11.316Z,1.7
2017-02-14T01:38:21.308Z,1.6
2017-02-14T01:38:31.299Z,1.6
2017-02-14T01:38:41.295Z,1.7
2017-02-14T01:38:51.285Z,1.6
2017-02-14T01:39:01.279Z,1.7
2017-02-14T01:39:11.275Z,1.6
2017-02-14T01:39:21.267Z,1.6
2017-02-14T01:39:31.261Z,1.7
2017-02-14T01:39:41.253Z,1.8
2017-02-14T01:39:51.246Z,1.7
2017-02-14T01:40:01.241Z,1.8
2017-02-14T01:40:11.230Z,1.7
2017-02-14T01:40:21.225Z,1.7
2017-02-14T01:40:31.218Z,1.8
2017-02-14T01:40:41.212Z,1.7
2017-02-14T01:40:51.205Z,1.7
2017-02-14T01:41:01.199Z,1.8
2017-02-14T01:41:11.193Z,1.7
2017-02-14T01:41:21.184Z,1.7
2017-02-14T01:41:31.176Z,1.7
2017-02-14T01:41:41.169Z,1.7
2017-02-14T01:41:51.162Z,1.7
2017-02-14T01:42:01.155Z,1.8
2017-02-14T01:42:11.154Z,1.7
2017-02-14T01:42:21.143Z,1.7
2017-02-14T01:42:31.135Z,1.7
2017-02-14T01:42:41.128Z,1.7
2017-02-14T01:42:51.121Z,1.6
2017-02-14T01:43:01.114Z,1.7
2017-02-14T01:43:11.106Z,1.6
2017-02-14T01:43:21.099Z,1.7
2017-02-14T01:43:31.094Z,1.7
2017-02-14T01:43:41.088Z,1.7
2017-02-14T01:43:51.078Z,1.7
2017-02-14T01:44:01.072Z,1.7
2017-02-14T01:44:11.067Z,1.6
2017-02-14T01:44:21.060Z,1.6
2017-02-14T01:44:31.052Z,1.7
2017-02-14T01:44:41.044Z,1.7
2017-02-14T01:44:51.038Z,1.7
2017-02-14T01:45:01.031Z,1.7
2017-02-14T01:45:11.025Z,1.7
2017-02-14T01:45:21.019Z,1.8
2017-02-14T01:45:31.013Z,1.7
2017-02-14T01:45:41.005Z,1.7
2017-02-14T01:45:50.999Z,1.7
2017-02-14T01:46:00.990Z,1.7
2017-02-14T01:46:10.983Z,1.7
2017-02-14T01:46:20.978Z,1.7
2017-02-14T01:46:30.968Z,1.7
2017-02-14T01:46:40.962Z,1.7
2017-02-14T01:46:50.954Z,1.7
2017-02-14T01:47:00.948Z,1.7
2017-02-14T01:47:10.941Z,1.6
2017-02-14T01:47:20.934Z,1.7
2017-02-14T01:47:30.930Z,1.7
2017-02-14T01:47:40.921Z,1.7
2017-02-14T01:47:50.913Z,1.6
2017-02-14T01:48:00.908Z,1.7
2017-02-14T01:48:10.898Z,1.7
2017-02-14T01:48:20.895Z,1.7
2017-02-14T01:48:30.886Z,1.6
2017-02-14T01:48:40.879Z,1.7
2017-02-14T01:48:50.874Z,1.7
2017-02-14T01:49:00.866Z,1.7
2017-02-14T01:49:10.860Z,1.7
2017-02-14T01:49:20.855Z,1.6
2017-02-14T01:49:30.844Z,1.6
2017-02-14T01:49:40.839Z,1.7
2017-02-14T01:49:50.831Z,1.7
2017-02-14T01:50:00.823Z,1.7
2017-02-14T01:50:10.819Z,1.7
2017-02-14T01:50:20.812Z,1.7
2017-02-14T01:50:30.805Z,1.7
2017-02-14T01:50:40.797Z,1.7
2017-02-14T01:50:50.789Z,1.7
2017-02-14T01:51:00.784Z,1.7
2017-02-14T01:51:10.777Z,1.7
2017-02-14T01:51:20.770Z,1.7
2017-02-14T01:51:30.761Z,1.6
2017-02-14T01:51:40.759Z,1.7
2017-02-14T01:51:50.747Z,1.7
2017-02-14T01:52:00.743Z,1.6
2017-02-14T01:52:10.734Z,1.7
2017-02-14T01:52:20.732Z,1.7
2017-02-14T01:52:30.720Z,1.7
2017-02-14T01:52:40.712Z,1.6
2017-02-14T01:52:50.707Z,1.7
2017-02-14T01:53:00.702Z,1.7
2017-02-14T01:53:10.693Z,1.7
2017-02-14T01:53:20.685Z,1.7
2017-02-14T01:53:30.680Z,1.7
2017-02-14T01:53:40.672Z,1.6
2017-02-14T01:53:50.665Z,1.6
2017-02-14T01:54:00.659Z,1.7
2017-02-14T01:54:10.654Z,1.6
2017-02-14T01:54:20.646Z,1.7
2017-02-14T01:54:30.640Z,1.7
2017-02-14T01:54:40.633Z,1.6
2017-02-14T01:54:50.622Z,1.7
2017-02-14T01:55:00.622Z,1.5
2017-02-14T01:55:10.611Z,1.5
2017-02-14T01:55:20.604Z,1.7
2017-02-14T01:55:30.598Z,1.6
2017-02-14T01:55:40.591Z,1.6
2017-02-14T01:55:50.584Z,1.6
2017-02-14T01:56:00.577Z,1.6
2017-02-14T01:56:10.568Z,1.7
2017-02-14T01:56:20.561Z,1.5
2017-02-14T01:56:30.558Z,1.5
2017-02-14T01:56:40.549Z,1.7
2017-02-14T01:56:50.540Z,1.6
2017-02-14T01:57:00.536Z,1.5
2017-02-14T01:57:10.528Z,1.6
2017-02-14T01:57:20.526Z,1.5
2017-02-14T01:57:30.515Z,1.6
2017-02-14T01:57:40.507Z,1.5
2017-02-14T01:57:50.499Z,1.6
2017-02-14T01:58:00.493Z,1.6
2017-02-14T01:58:10.488Z,1.7
2017-02-14T01:58:20.479Z,1.6
2017-02-14T01:58:30.474Z,1.6
2017-02-14T01:58:40.465Z,1.6
2017-02-14T01:58:50.457Z,1.5
2017-02-14T01:59:00.453Z,1.6
2017-02-14T01:59:10.447Z,1.6
2017-02-14T01:59:20.439Z,1.6
2017-02-14T01:59:30.433Z,1.6
2017-02-14T01:59:40.424Z,1.5
2017-02-14T01:59:50.417Z,1.6
2017-02-14T02:00:00.410Z,1.5
2017-02-14T02:00:10.405Z,1.6
2017-02-14T02:00:20.395Z,1.5
2017-02-14T02:00:30.391Z,1.6
2017-02-14T02:00:40.385Z,1.5
2017-02-14T02:00:50.375Z,1.5
2017-02-14T02:01:00.371Z,1.5
2017-02-14T02:01:10.361Z,1.5
2017-02-14T02:01:20.356Z,1.5
2017-02-14T02:01:30.347Z,1.6
2017-02-14T02:01:40.341Z,1.6
2017-02-14T02:01:50.335Z,1.5
2017-02-14T02:02:00.329Z,1.5
2017-02-14T02:02:10.324Z,1.5
2017-02-14T02:02:20.316Z,1.5
2017-02-14T02:02:30.307Z,1.5
2017-02-14T02:02:40.298Z,1.5
2017-02-14T02:02:50.291Z,1.5
2017-02-14T02:03:00.287Z,1.5
2017-02-14T02:03:10.279Z,1.5
2017-02-14T02:03:20.273Z,1.5
2017-02-14T02:03:30.264Z,1.5
2017-02-14T02:03:40.259Z,1.5
2017-02-14T02:03:50.252Z,1.6
2017-02-14T02:04:00.247Z,1.6
2017-02-14T02:04:10.236Z,1.6
2017-02-14T02:04:20.232Z,1.5
2017-02-14T02:04:30.224Z,1.6
2017-02-14T02:04:40.218Z,1.6
2017-02-14T02:04:50.209Z,1.6
2017-02-14T02:05:00.203Z,1.6
2017-02-14T02:05:10.198Z,1.6
2017-02-14T02:05:20.189Z,1.6
2017-02-14T02:05:30.184Z,1.5
2017-02-14T02:05:40.175Z,1.6
2017-02-14T02:05:50.171Z,1.5
2017-02-14T02:06:00.163Z,1.6
2017-02-14T02:06:10.155Z,1.5
2017-02-14T02:06:20.145Z,1.6
2017-02-14T02:06:30.141Z,1.6
2017-02-14T02:06:40.133Z,1.6
2017-02-14T02:06:50.126Z,1.6
2017-02-14T02:07:00.120Z,1.6
2017-02-14T02:07:10.112Z,1.6
2017-02-14T02:07:20.108Z,1.6
2017-02-14T02:07:30.099Z,1.6
2017-02-14T02:07:40.095Z,1.5
2017-02-14T02:07:50.086Z,1.6
2017-02-14T02:08:00.079Z,1.5
2017-02-14T02:08:10.073Z,1.5
2017-02-14T02:08:20.064Z,1.5
2017-02-14T02:08:30.060Z,1.5
2017-02-14T02:08:40.051Z,1.5
2017-02-14T02:08:50.043Z,1.5
2017-02-14T02:09:00.040Z,1.5
2017-02-14T02:09:10.031Z,1.5
2017-02-14T02:09:20.026Z,1.5
2017-02-14T02:09:30.015Z,1.5
2017-02-14T02:09:40.009Z,1.5
2017-02-14T02:09:50.003Z,1.6
2017-02-14T02:09:59.994Z,1.5
2017-02-14T02:10:09.992Z,1.6
2017-02-14T02:10:19.984Z,1.5
2017-02-14T02:10:29.977Z,1.6
2017-02-14T02:10:39.970Z,1.6
2017-02-14T02:10:49.960Z,1.6
2017-02-14T02:10:59.952Z,1.6
2017-02-14T02:11:09.947Z,1.5
2017-02-14T02:11:19.940Z,1.5
2017-02-14T02:11:29.935Z,1.6
2017-02-14T02:11:39.927Z,1.5
2017-02-14T02:11:49.924Z,1.6
2017-02-14T02:11:59.912Z,1.5
2017-02-14T02:12:09.904Z,1.5
2017-02-14T02:12:19.898Z,1.6
2017-02-14T02:12:29.892Z,1.5
2017-02-14T02:12:39.885Z,1.6
2017-02-14T02:12:49.902Z,1.6
2017-02-14T02:12:59.872Z,1.6
2017-02-14T02:13:09.864Z,1.5
2017-02-14T02:13:19.858Z,1.5
2017-02-14T02:13:29.851Z,1.5
2017-02-14T02:13:39.843Z,1.5
2017-02-14T02:13:49.838Z,1.5
2017-02-14T02:13:59.829Z,1.5
2017-02-14T02:14:09.825Z,1.5
2017-02-14T02:14:19.818Z,1.6
2017-02-14T02:14:29.812Z,1.5
2017-02-14T02:14:39.804Z,1.5
2017-02-14T02:14:49.795Z,1.6
2017-02-14T02:14:59.787Z,1.6
2017-02-14T02:15:09.780Z,1.5
2017-02-14T02:15:19.774Z,1.6
2017-02-14T02:15:29.766Z,1.5
2017-02-14T02:15:39.763Z,1.5
2017-02-14T02:15:49.763Z,1.5
2017-02-14T02:15:59.747Z,1.5
2017-02-14T02:16:09.741Z,1.5
2017-02-14T02:16:19.732Z,1.5
2017-02-14T02:16:29.725Z,1.5
2017-02-14T02:16:39.719Z,1.4
2017-02-14T02:16:49.710Z,1.4
2017-02-14T02:16:59.705Z,1.4
2017-02-14T02:17:09.697Z,1.4
2017-02-14T02:17:19.694Z,1.4
2017-02-14T02:17:29.687Z,1.4
2017-02-14T02:17:39.679Z,1.4
2017-02-14T02:17:49.674Z,1.5
2017-02-14T02:17:59.662Z,1.4
2017-02-14T02:18:09.658Z,1.4
2017-02-14T02:18:19.650Z,1.4
2017-02-14T02:18:29.642Z,1.5
2017-02-14T02:18:39.640Z,1.4